createdAt,value
2023-03-16T00:02:02.165Z,6.90
2023-03-16T00:04:47.630Z,6.90
2023-03-16T00:07:34.388Z,6.90
2023-03-16T00:10:22.548Z,6.90
2023-03-16T00:13:07.818Z,6.90
2023-03-16T00:16:01.222Z,6.90
2023-03-16T00:18:46.905Z,7.00
2023-03-16T00:21:32.411Z,6.90
2023-03-16T00:24:19.490Z,7.00
2023-03-16T00:27:04.857Z,7.00
2023-03-16T00:30:00.165Z,7.00
2023-03-16T00:32:45.954Z,7.00
2023-03-16T00:35:34.584Z,7.00
2023-03-16T00:38:21.740Z,7.00
2023-03-16T00:41:09.221Z,7.00
2023-03-16T00:43:54.883Z,7.00
2023-03-16T00:46:40.159Z,7.10
2023-03-16T00:49:25.789Z,7.10
2023-03-16T00:52:16.304Z,7.10
2023-03-16T00:55:03.801Z,7.10
2023-03-16T00:57:49.414Z,7.20
2023-03-16T01:00:34.695Z,7.20
2023-03-16T01:03:21.748Z,7.20
2023-03-16T01:06:12.621Z,7.20
2023-03-16T01:08:58.155Z,7.20
2023-03-16T01:11:43.292Z,7.20
2023-03-16T01:14:29.457Z,7.30
2023-03-16T01:17:17.322Z,7.20
2023-03-16T01:20:08.470Z,7.20
2023-03-16T01:22:53.813Z,7.20
2023-03-16T01:25:39.071Z,7.20
2023-03-16T01:28:27.695Z,7.20
2023-03-16T01:31:17.148Z,7.20
2023-03-16T01:34:04.208Z,7.30
2023-03-16T01:36:51.700Z,7.20
2023-03-16T01:39:45.395Z,7.20
2023-03-16T01:43:04.518Z,7.20
2023-03-16T01:46:06.004Z,7.20
2023-03-16T01:49:24.052Z,7.10
2023-03-16T01:52:18.176Z,7.20
2023-03-16T01:55:09.079Z,7.10
2023-03-16T01:57:55.710Z,7.10
2023-03-16T02:00:47.802Z,7.10
2023-03-16T02:03:40.314Z,7.10
2023-03-16T02:06:35.676Z,7.10
2023-03-16T02:09:25.070Z,7.10
2023-03-16T02:12:18.100Z,7.10
2023-03-16T02:15:09.310Z,7.10
2023-03-16T02:17:57.739Z,7.20
2023-03-16T02:21:03.901Z,7.20
2023-03-16T02:23:51.566Z,7.20
2023-03-16T02:26:47.522Z,7.20
2023-03-16T02:29:55.954Z,7.20
2023-03-16T02:32:46.033Z,7.20
2023-03-16T02:35:32.228Z,7.20
2023-03-16T02:38:17.656Z,7.20
2023-03-16T02:41:15.118Z,7.20
2023-03-16T02:44:40.542Z,7.20
2023-03-16T02:47:47.312Z,7.20
2023-03-16T02:50:33.419Z,7.20
2023-03-16T02:53:19.681Z,7.20
2023-03-16T02:56:14.506Z,7.30
2023-03-16T02:59:00.287Z,7.30
2023-03-16T03:01:48.324Z,7.30
2023-03-16T03:04:35.032Z,7.30
2023-03-16T03:07:21.360Z,7.30
2023-03-16T03:10:17.492Z,7.30
2023-03-16T03:13:03.068Z,7.30
2023-03-16T03:15:48.949Z,7.30
2023-03-16T03:18:34.840Z,7.30
2023-03-16T03:21:25.857Z,7.30
2023-03-16T03:24:11.428Z,7.30
2023-03-16T03:26:56.980Z,7.30
2023-03-16T03:29:44.920Z,7.30
2023-03-16T03:32:30.412Z,7.30
2023-03-16T03:35:16.097Z,7.30
2023-03-16T03:38:01.478Z,7.30
2023-03-16T03:40:52.412Z,7.30
2023-03-16T03:43:38.048Z,7.30
2023-03-16T03:46:24.548Z,7.40
2023-03-16T03:49:09.934Z,7.40
2023-03-16T03:51:56.735Z,7.40
2023-03-16T03:54:44.580Z,7.40
2023-03-16T03:57:35.263Z,7.40
2023-03-16T04:00:21.899Z,7.50
2023-03-16T04:03:10.620Z,7.50
2023-03-16T04:06:02.478Z,7.50
2023-03-16T04:08:49.399Z,7.50
2023-03-16T04:11:38.806Z,7.50
2023-03-16T04:14:24.663Z,7.50
2023-03-16T04:17:10.022Z,7.50
2023-03-16T04:20:01.972Z,7.50
2023-03-16T04:22:58.303Z,7.60
2023-03-16T04:25:45.288Z,7.60
2023-03-16T04:28:35.629Z,7.60
2023-03-16T04:31:21.297Z,7.60
2023-03-16T04:34:06.870Z,7.60
2023-03-16T04:36:56.051Z,7.60
2023-03-16T04:39:42.195Z,7.60
2023-03-16T04:42:28.265Z,7.60
2023-03-16T04:45:14.663Z,7.60
2023-03-16T04:48:00.430Z,7.50
2023-03-16T04:50:47.573Z,7.50
2023-03-16T04:53:34.726Z,7.50
2023-03-16T04:56:28.195Z,7.50
2023-03-16T04:59:21.230Z,7.50
2023-03-16T05:02:17.690Z,7.50
2023-03-16T05:05:04.536Z,7.40
2023-03-16T05:07:50.089Z,7.40
2023-03-16T05:10:36.771Z,7.40
2023-03-16T05:13:23.864Z,7.40
2023-03-16T05:16:10.825Z,7.40
2023-03-16T05:19:00.270Z,7.40
2023-03-16T05:21:49.329Z,7.40
2023-03-16T05:24:37.187Z,7.30
2023-03-16T05:27:22.699Z,7.40
2023-03-16T05:30:10.890Z,7.40
2023-03-16T05:32:58.070Z,7.30
2023-03-16T05:35:44.997Z,7.30
2023-03-16T05:38:36.898Z,7.30
2023-03-16T05:41:23.972Z,7.30
2023-03-16T05:44:16.661Z,7.40
2023-03-16T05:47:31.451Z,7.30
2023-03-16T05:50:17.621Z,7.40
2023-03-16T05:53:04.312Z,7.40
2023-03-16T05:55:53.681Z,7.40
2023-03-16T05:58:39.268Z,7.40
2023-03-16T06:01:27.080Z,7.40
2023-03-16T06:04:12.798Z,7.40
2023-03-16T06:07:00.382Z,7.40
2023-03-16T06:09:48.177Z,7.30
2023-03-16T06:12:35.138Z,7.30
2023-03-16T06:15:20.755Z,7.30
2023-03-16T06:18:06.976Z,7.30
2023-03-16T06:20:53.146Z,7.30
2023-03-16T06:23:39.781Z,7.30
2023-03-16T06:26:27.723Z,7.30
2023-03-16T06:29:13.794Z,7.30
2023-03-16T06:32:00.458Z,7.30
2023-03-16T06:34:46.888Z,7.30
2023-03-16T06:37:32.840Z,7.40
2023-03-16T06:40:22.158Z,7.40
2023-03-16T06:43:08.764Z,7.40
2023-03-16T06:45:58.979Z,7.40
2023-03-16T06:48:47.338Z,7.50
2023-03-16T06:51:34.312Z,7.40
2023-03-16T06:54:19.822Z,7.50
2023-03-16T06:57:05.720Z,7.50
2023-03-16T06:59:51.233Z,7.60
2023-03-16T07:02:43.790Z,7.50
2023-03-16T07:05:30.589Z,7.60
2023-03-16T07:08:17.410Z,7.60
2023-03-16T07:11:02.919Z,7.70
2023-03-16T07:13:54.313Z,7.70
2023-03-16T07:16:41.201Z,7.70
2023-03-16T07:19:29.636Z,7.80
2023-03-16T07:22:19.046Z,7.80
2023-03-16T07:25:05.305Z,7.80
2023-03-16T07:27:52.336Z,7.90
2023-03-16T07:31:00.279Z,7.90
2023-03-16T07:33:50.833Z,7.90
2023-03-16T07:36:48.842Z,8.00
2023-03-16T07:39:36.118Z,8.10
2023-03-16T07:42:35.458Z,8.10
2023-03-16T07:45:30.866Z,8.20
2023-03-16T07:48:16.988Z,8.30
2023-03-16T07:51:09.224Z,8.30
2023-03-16T07:53:57.215Z,8.30
2023-03-16T07:56:49.749Z,8.30
2023-03-16T07:59:50.342Z,8.40
2023-03-16T08:02:39.099Z,8.40
2023-03-16T08:05:27.784Z,8.50
2023-03-16T08:08:18.042Z,8.50
2023-03-16T08:11:04.175Z,8.50
2023-03-16T08:14:00.833Z,8.60
2023-03-16T08:17:09.654Z,8.60
2023-03-16T08:19:55.019Z,8.70
2023-03-16T08:22:46.920Z,8.70
2023-03-16T08:25:37.821Z,8.80
2023-03-16T08:28:28.873Z,8.90
2023-03-16T08:31:15.993Z,8.90
2023-03-16T08:34:05.182Z,8.90
2023-03-16T08:36:57.597Z,9.00
2023-03-16T08:39:44.444Z,8.90
2023-03-16T08:42:33.751Z,9.00
2023-03-16T08:45:23.551Z,9.10
2023-03-16T08:48:13.209Z,9.20
2023-03-16T08:51:05.801Z,9.40
2023-03-16T08:53:51.864Z,9.50
2023-03-16T08:56:41.447Z,9.70
2023-03-16T08:59:30.232Z,9.90
2023-03-16T09:02:15.947Z,10.00
2023-03-16T09:05:03.897Z,10.10
2023-03-16T09:07:49.430Z,10.20
2023-03-16T09:10:36.039Z,10.30
2023-03-16T09:13:21.722Z,10.40
2023-03-16T09:16:12.143Z,10.40
2023-03-16T09:18:58.489Z,10.50
2023-03-16T09:21:45.970Z,10.60
2023-03-16T09:24:54.109Z,10.60
2023-03-16T09:27:43.360Z,10.70
2023-03-16T09:30:29.168Z,10.70
2023-03-16T09:33:14.389Z,10.70
2023-03-16T09:36:01.899Z,10.70
2023-03-16T09:38:51.019Z,10.70
2023-03-16T09:41:48.710Z,10.80
2023-03-16T09:44:40.986Z,10.90
2023-03-16T09:47:30.508Z,11.00
2023-03-16T09:50:35.147Z,11.20
2023-03-16T09:53:37.173Z,11.30
2023-03-16T09:56:38.829Z,11.60
2023-03-16T09:59:25.271Z,11.80
2023-03-16T10:02:44.891Z,12.00
2023-03-16T10:05:31.881Z,12.20
2023-03-16T10:08:24.617Z,12.40
2023-03-16T10:11:45.013Z,12.50
2023-03-16T10:14:39.394Z,12.70
2023-03-16T10:17:34.689Z,12.80
2023-03-16T10:20:23.504Z,12.90
2023-03-16T10:23:24.063Z,13.10
2023-03-16T10:26:28.544Z,13.30
2023-03-16T10:29:14.776Z,13.40
2023-03-16T10:32:12.602Z,13.40
2023-03-16T10:35:07.038Z,13.50
2023-03-16T10:37:52.971Z,13.50
2023-03-16T10:40:39.863Z,13.60
2023-03-16T10:43:25.469Z,13.70
2023-03-16T10:46:20.262Z,13.80
2023-03-16T10:49:17.297Z,13.90
2023-03-16T10:52:23.837Z,14.00
2023-03-16T10:55:21.039Z,14.10
2023-03-16T10:58:11.432Z,14.10
2023-03-16T11:01:00.171Z,14.20
2023-03-16T11:03:51.308Z,14.20
2023-03-16T11:06:36.976Z,14.20
2023-03-16T11:09:40.937Z,14.20
2023-03-16T11:12:30.449Z,14.20
2023-03-16T11:15:25.828Z,14.30
2023-03-16T11:18:36.755Z,14.30
2023-03-16T11:21:55.102Z,14.20
2023-03-16T11:25:06.898Z,14.20
2023-03-16T11:28:13.373Z,14.20
2023-03-16T11:31:10.771Z,14.20
2023-03-16T11:33:57.496Z,14.20
2023-03-16T11:37:01.239Z,14.30
2023-03-16T11:40:18.192Z,14.40
2023-03-16T11:43:16.960Z,14.60
2023-03-16T11:46:23.440Z,14.80
2023-03-16T11:49:43.285Z,15.00
2023-03-16T11:52:44.084Z,15.20
2023-03-16T11:55:35.259Z,15.40
2023-03-16T11:58:33.618Z,15.70
2023-03-16T12:01:33.247Z,16.10
2023-03-16T12:04:41.781Z,16.70
2023-03-16T12:07:39.632Z,16.70
2023-03-16T12:11:17.040Z,16.80
2023-03-16T12:14:11.418Z,16.80
2023-03-16T12:17:09.918Z,16.90
2023-03-16T12:20:05.423Z,16.80
2023-03-16T12:23:02.284Z,16.90
2023-03-16T12:25:49.357Z,17.00
2023-03-16T12:28:36.624Z,17.40
2023-03-16T12:31:47.642Z,17.80
2023-03-16T12:34:52.266Z,18.40
2023-03-16T12:37:59.848Z,18.90
2023-03-16T12:40:54.021Z,19.90
2023-03-16T12:43:46.004Z,20.40
2023-03-16T12:46:47.757Z,20.70
2023-03-16T12:49:34.874Z,20.80
2023-03-16T12:52:20.430Z,20.70
2023-03-16T12:55:36.293Z,21.10
2023-03-16T12:58:22.935Z,21.30
2023-03-16T13:01:11.625Z,21.80
2023-03-16T13:04:21.293Z,22.40
2023-03-16T13:07:22.904Z,23.00
2023-03-16T13:10:14.759Z,23.40
2023-03-16T13:13:18.373Z,23.70
2023-03-16T13:16:09.242Z,23.50
2023-03-16T13:18:55.395Z,23.30
2023-03-16T13:21:42.822Z,23.30
2023-03-16T13:24:38.006Z,23.40
2023-03-16T13:27:28.481Z,23.70
2023-03-16T13:30:30.093Z,24.70
2023-03-16T13:33:36.801Z,25.20
2023-03-16T13:36:24.435Z,25.60
2023-03-16T13:39:27.460Z,25.60
2023-03-16T13:42:20.381Z,25.40
2023-03-16T13:45:23.119Z,25.60
2023-03-16T13:48:16.305Z,26.10
2023-03-16T13:51:04.437Z,26.20
2023-03-16T13:53:53.593Z,26.60
2023-03-16T13:56:43.274Z,27.30
2023-03-16T13:59:33.385Z,27.90
2023-03-16T14:02:22.733Z,27.90
2023-03-16T14:05:33.177Z,28.10
2023-03-16T14:08:21.746Z,28.20
2023-03-16T14:11:08.987Z,28.30
2023-03-16T14:13:56.945Z,28.40
2023-03-16T14:16:45.801Z,28.10
2023-03-16T14:19:42.261Z,27.80
2023-03-16T14:22:37.158Z,28.10
2023-03-16T14:25:28.266Z,28.50
2023-03-16T14:28:16.077Z,28.40
2023-03-16T14:31:10.639Z,28.70
2023-03-16T14:34:06.382Z,29.10
2023-03-16T14:36:52.342Z,29.30
2023-03-16T14:39:40.564Z,29.40
2023-03-16T14:42:30.321Z,29.20
2023-03-16T14:45:17.668Z,29.20
2023-03-16T14:48:06.275Z,29.10
2023-03-16T14:50:56.480Z,28.90
2023-03-16T14:53:44.789Z,28.90
2023-03-16T14:56:36.470Z,29.50
2023-03-16T14:59:22.504Z,29.60
2023-03-16T15:02:18.363Z,29.70
2023-03-16T15:05:04.528Z,30.00
2023-03-16T15:07:58.101Z,30.10
2023-03-16T15:10:45.007Z,29.90
2023-03-16T15:13:53.508Z,29.40
2023-03-16T15:16:39.376Z,29.20
2023-03-16T15:19:25.049Z,29.20
2023-03-16T15:22:14.272Z,29.20
2023-03-16T15:25:22.264Z,29.70
2023-03-16T15:28:20.438Z,30.30
2023-03-16T15:31:06.851Z,30.30
2023-03-16T15:33:52.526Z,29.80
2023-03-16T15:36:38.525Z,28.80
2023-03-16T15:39:25.261Z,29.00
2023-03-16T15:42:16.605Z,29.40
2023-03-16T15:45:01.892Z,28.40
2023-03-16T15:48:00.581Z,28.20
2023-03-16T15:50:52.524Z,28.00
2023-03-16T15:54:00.920Z,27.50
2023-03-16T15:56:54.379Z,26.50
2023-03-16T15:59:41.801Z,24.90
2023-03-16T16:02:32.294Z,23.70
2023-03-16T16:05:20.560Z,23.20
2023-03-16T16:08:07.434Z,22.40
2023-03-16T16:10:53.559Z,21.80
2023-03-16T16:13:44.781Z,22.00
2023-03-16T16:16:33.179Z,22.50
2023-03-16T16:19:18.883Z,23.20
2023-03-16T16:22:04.686Z,23.70
2023-03-16T16:24:50.541Z,23.90
2023-03-16T16:27:35.941Z,23.50
2023-03-16T16:30:31.820Z,22.60
2023-03-16T16:33:23.059Z,21.60
2023-03-16T16:36:17.721Z,21.20
2023-03-16T16:39:05.179Z,21.30
2023-03-16T16:41:54.686Z,21.60
2023-03-16T16:44:40.933Z,21.40
2023-03-16T16:47:26.595Z,20.80
2023-03-16T16:50:21.720Z,20.20
2023-03-16T16:53:19.566Z,19.80
2023-03-16T16:56:11.832Z,19.50
2023-03-16T16:59:00.808Z,19.40
2023-03-16T17:01:57.616Z,18.90
2023-03-16T17:04:43.217Z,18.40
2023-03-16T17:07:28.757Z,18.10
2023-03-16T17:10:16.674Z,17.70
2023-03-16T17:13:02.324Z,17.30
2023-03-16T17:15:48.445Z,16.90
2023-03-16T17:18:36.486Z,16.50
2023-03-16T17:21:42.482Z,16.20
2023-03-16T17:24:32.895Z,15.90
2023-03-16T17:27:24.760Z,15.70
2023-03-16T17:30:29.022Z,15.50
2023-03-16T17:33:18.661Z,15.20
2023-03-16T17:36:04.679Z,15.00
2023-03-16T17:38:50.611Z,14.70
2023-03-16T17:41:47.911Z,14.60
2023-03-16T17:44:37.302Z,14.30
2023-03-16T17:47:25.419Z,14.10
2023-03-16T17:50:20.408Z,13.90
2023-03-16T17:53:09.405Z,13.70
2023-03-16T17:55:57.314Z,13.50
2023-03-16T17:58:45.289Z,13.30
2023-03-16T18:01:35.972Z,13.10
2023-03-16T18:04:24.107Z,13.00
2023-03-16T18:07:14.278Z,12.90
2023-03-16T18:10:00.017Z,12.80
2023-03-16T18:12:53.489Z,12.70
2023-03-16T18:15:41.659Z,12.60
2023-03-16T18:18:29.020Z,12.40
2023-03-16T18:21:19.779Z,12.20
2023-03-16T18:24:19.756Z,12.20
2023-03-16T18:27:08.282Z,12.10
2023-03-16T18:29:54.236Z,12.10
2023-03-16T18:32:45.058Z,12.00
2023-03-16T18:35:38.458Z,11.90
2023-03-16T18:38:40.740Z,11.80
2023-03-16T18:41:33.751Z,11.70
2023-03-16T18:44:23.998Z,11.70
2023-03-16T18:47:17.376Z,11.60
2023-03-16T18:50:06.617Z,11.60
2023-03-16T18:52:52.750Z,11.40
2023-03-16T18:55:45.033Z,11.40
2023-03-16T18:58:39.403Z,11.30
2023-03-16T19:01:31.809Z,11.20
2023-03-16T19:04:29.230Z,11.20
2023-03-16T19:07:28.964Z,11.10
2023-03-16T19:10:31.943Z,11.00
2023-03-16T19:13:21.192Z,10.90
2023-03-16T19:16:15.535Z,10.90
2023-03-16T19:19:03.591Z,10.90
2023-03-16T19:21:50.795Z,10.80
2023-03-16T19:24:52.399Z,10.80
2023-03-16T19:27:42.994Z,10.70
2023-03-16T19:30:31.251Z,10.70
2023-03-16T19:33:20.824Z,10.60
2023-03-16T19:36:13.494Z,10.60
2023-03-16T19:39:02.484Z,10.50
2023-03-16T19:41:56.621Z,10.50
2023-03-16T19:44:43.634Z,10.40
2023-03-16T19:47:31.531Z,10.40
2023-03-16T19:50:24.119Z,10.40
2023-03-16T19:53:17.288Z,10.30
2023-03-16T19:56:04.002Z,10.30
2023-03-16T19:58:52.015Z,10.40
2023-03-16T20:01:37.970Z,10.40
2023-03-16T20:04:28.015Z,10.40
2023-03-16T20:07:17.155Z,10.40
2023-03-16T20:10:02.904Z,10.40
2023-03-16T20:12:51.402Z,10.50
2023-03-16T20:15:42.390Z,10.50
2023-03-16T20:18:29.515Z,10.50
2023-03-16T20:21:16.811Z,10.40
2023-03-16T20:24:04.335Z,10.40
2023-03-16T20:26:55.006Z,10.30
2023-03-16T20:29:41.282Z,10.30
2023-03-16T20:32:32.917Z,10.30
2023-03-16T20:35:25.011Z,10.20
2023-03-16T20:38:22.525Z,10.20
2023-03-16T20:41:16.421Z,10.20
2023-03-16T20:44:06.098Z,10.20
2023-03-16T20:46:54.556Z,10.20
2023-03-16T20:49:46.178Z,10.20
2023-03-16T20:52:31.980Z,10.10
2023-03-16T20:55:20.135Z,10.10
2023-03-16T20:58:34.993Z,10.10
2023-03-16T21:01:23.214Z,10.00
2023-03-16T21:04:36.238Z,10.00
2023-03-16T21:07:22.036Z,9.90
2023-03-16T21:10:07.770Z,9.80
2023-03-16T21:12:56.500Z,9.80
2023-03-16T21:15:42.200Z,9.70
2023-03-16T21:18:28.685Z,9.70
2023-03-16T21:21:16.499Z,9.70
2023-03-16T21:24:05.072Z,9.70
2023-03-16T21:26:53.084Z,9.60
2023-03-16T21:29:38.579Z,9.50
2023-03-16T21:32:26.688Z,9.50
2023-03-16T21:35:17.041Z,9.50
2023-03-16T21:38:12.749Z,9.50
2023-03-16T21:41:01.375Z,9.50
2023-03-16T21:43:47.176Z,9.50
2023-03-16T21:46:33.550Z,9.50
2023-03-16T21:49:19.738Z,9.60
2023-03-16T21:52:21.999Z,9.60
2023-03-16T21:55:23.258Z,9.60
2023-03-16T21:58:10.764Z,9.60
2023-03-16T22:00:59.208Z,9.70
2023-03-16T22:03:50.947Z,9.80
2023-03-16T22:06:36.852Z,9.80
2023-03-16T22:09:26.917Z,9.90
2023-03-16T22:12:16.369Z,9.90
2023-03-16T22:15:11.220Z,9.90
2023-03-16T22:17:56.788Z,9.90
2023-03-16T22:20:42.593Z,10.00
2023-03-16T22:23:36.660Z,10.00
2023-03-16T22:26:23.590Z,10.00
2023-03-16T22:29:18.303Z,10.10
2023-03-16T22:32:10.593Z,10.10
2023-03-16T22:34:57.265Z,10.10
2023-03-16T22:37:42.881Z,10.10
2023-03-16T22:40:31.746Z,10.10
2023-03-16T22:43:22.496Z,10.20
2023-03-16T22:46:19.534Z,10.20
2023-03-16T22:49:13.002Z,10.20
2023-03-16T22:51:58.468Z,10.20
2023-03-16T22:54:45.717Z,10.20
2023-03-16T22:57:31.639Z,10.20
2023-03-16T23:00:21.248Z,10.20
2023-03-16T23:03:16.119Z,10.20
2023-03-16T23:06:02.924Z,10.10
2023-03-16T23:08:48.533Z,10.10
2023-03-16T23:11:39.469Z,10.10
2023-03-16T23:14:29.154Z,10.10
2023-03-16T23:17:22.251Z,10.10
2023-03-16T23:20:19.301Z,10.10
2023-03-16T23:23:07.789Z,10.10
2023-03-16T23:25:53.306Z,10.10
2023-03-16T23:28:38.782Z,10.00
2023-03-16T23:31:26.330Z,10.00
2023-03-16T23:34:13.507Z,10.00
2023-03-16T23:36:58.580Z,9.90
2023-03-16T23:39:44.289Z,9.80
2023-03-16T23:42:30.087Z,9.80
2023-03-16T23:45:41.936Z,9.70
2023-03-16T23:51:34.684Z,9.70
2023-03-16T23:54:23.445Z,9.70
2023-03-16T23:57:09.107Z,9.60
2023-03-16T23:59:54.503Z,9.60
